Perry County Municipal, IN

12:20 PM CDT on October 31, 2014 (GMT -0500)
Hancock County, Ky | Change Station
CLOSE
Current Station
Personal Weather Station
Location: Lewisport, KY
Elevation: 404 ft
Nearby Weather Stations
Active Advisory: Freeze Warning, Special Statement

Elev 404 ft 37.90 °N, 86.88 °W | Updated 34 minutes ago

Overcast
Overcast
42.9 °F
Feels Like 41 °F
N
4.0
Wind Variable Wind from SSE
Gusts 4.0 mph

Today
High -- | Low -- °F
--% Chance of Precip.
Yesterday
High -- | Low -- °F
Precip. -- in
7:11 AM 5:48 PM
First Quarter, 57% visible
Pressure 30.07 in
Visibility 10.0 miles
Clouds Few 1100 ft
Scattered Clouds 1800 ft
Mostly Cloudy 2800 ft
Windchill 41 °F
Dew Point 40 °F
Humidity 89%
Rainfall 0.01 in
Snow Depth Not available.
UV 2 out of 12
Pollen .90 out of 12
Air Quality Not available.
Flu Activity Not available.
METAR KHNB 311715Z AUTO 35012G24KT 10SM FEW011 SCT018 BKN028 05/02 A3007 RMK AO1

More Conditions Fewer Conditions

Pressure 30.07 in
Visibility 10.0 miles
Clouds Few 1100 ft
Scattered Clouds 1800 ft
Mostly Cloudy 2800 ft
Windchill 41 °F
Dew Point 40 °F
Humidity 89%
Rainfall 0.01 in
Snow Depth Not available.
UV 2 out of 12
Pollen .90 out of 12
Air Quality Not available.
Flu Activity Not available.
METAR KHNB 311715Z AUTO 35012G24KT 10SM FEW011 SCT018 BKN028 05/02 A3007 RMK AO1

More Conditions Fewer Conditions

10-Day Weather Forecast

Almanac

Astronomy

Oct. 31, 2014 Rise Set
Actual Time
Civil Twilight
Nautical Twilight
Astronomical Twilight
Moon
Length of Visible Light
Length of Day
Tomorrow will be .
, % of the Moon is Illuminated

Today's Extremes

State Highs State Lows

Community

WunderPhotos

Upload Photos

1,766,668 photos uploaded!

WunderBlogs® & News

Nearby

Air Quality

  Air Quality AQ Index Pollutant
Not available.

Snow Depth

Station Depth Elevation

Earthquake Activity

City Distance Mag. Time & Date
Minimum magnitude displayed is 2.5.

Coastal Water Temperatures

Place Temperature

Nearby Weather Stations